Time;durP1;ratioP1;P1;durP2;ratioP2;P2;SDS_P1;SDS_P2;PMS_P1;PMS_P2;Temp;Humidity;BMP_temperature;BMP_pressure;BME280_temperature;BME280_humidity;BME280_pressure;Samples;Min_cycle;Max_cycle;Signal;HPM_P1;HPM_P2
2021/06/05 00:00:11;;;;;;;12.63;8.50;;;;;;;17.51;71.76;100966.13;4969885;28;20083;-78
2021/06/05 00:02:36;;;;;;;10.02;8.57;;;;;;;17.50;71.45;100971.50;4980674;28;20041;-77
2021/06/05 00:05:04;;;;;;;13.00;8.45;;;;;;;17.47;72.02;100960.91;4986546;28;20390;-77
2021/06/05 00:07:30;;;;;;;9.57;8.18;;;;;;;17.50;71.92;100969.72;4948775;28;20480;-78
2021/06/05 00:09:55;;;;;;;8.93;8.02;;;;;;;17.50;72.41;100963.50;4970132;28;20042;-77
2021/06/05 00:12:24;;;;;;;10.10;8.23;;;;;;;17.46;72.63;100967.19;4985992;28;20038;-78
2021/06/05 00:14:50;;;;;;;11.40;7.95;;;;;;;17.52;72.21;100967.00;4965349;28;20042;-78
2021/06/05 00:17:15;;;;;;;8.15;7.32;;;;;;;17.58;71.72;100972.19;4986187;28;20487;-78
2021/06/05 00:19:41;;;;;;;10.77;8.52;;;;;;;17.61;72.86;100972.09;4948386;28;20154;-77
2021/06/05 00:22:06;;;;;;;8.68;7.63;;;;;;;17.62;72.25;100967.63;4985376;28;20550;-78
2021/06/05 00:24:31;;;;;;;9.15;8.18;;;;;;;17.59;72.25;100962.38;4986601;28;20771;-78
2021/06/05 00:26:57;;;;;;;9.80;7.90;;;;;;;17.71;71.85;100964.69;4987574;28;20042;-78
2021/06/05 00:29:23;;;;;;;11.18;9.00;;;;;;;17.82;71.71;100959.09;4964751;28;20057;-78
2021/06/05 00:31:49;;;;;;;8.75;7.93;;;;;;;17.89;71.19;100955.28;4968498;28;20065;-77
2021/06/05 00:34:14;;;;;;;11.15;8.70;;;;;;;17.86;71.67;100953.59;4987079;28;20038;-78
2021/06/05 00:36:40;;;;;;;8.90;7.72;;;;;;;17.84;72.05;100955.44;4983471;28;20027;-78
2021/06/05 00:39:07;;;;;;;8.50;7.70;;;;;;;17.87;72.05;100963.38;4985836;28;20088;-77
2021/06/05 00:41:32;;;;;;;12.50;9.50;;;;;;;17.96;71.44;100964.88;4987070;28;20061;-78
2021/06/05 00:44:02;;;;;;;9.32;8.38;;;;;;;18.03;71.39;100963.78;4952532;28;20042;-77
2021/06/05 00:46:30;;;;;;;9.40;7.70;;;;;;;18.01;71.76;100964.75;4951729;28;20101;-78
2021/06/05 00:48:56;;;;;;;10.88;7.90;;;;;;;17.93;71.68;100965.84;4949035;28;20054;-77
2021/06/05 00:51:40;;;;;;;11.88;8.30;;;;;;;17.90;72.07;100962.41;4968046;28;20030;-77
2021/06/05 00:54:08;;;;;;;8.98;8.07;;;;;;;17.84;71.81;100957.22;4950827;28;20459;-78
2021/06/05 00:56:35;;;;;;;9.07;7.30;;;;;;;17.88;71.93;100957.09;4984924;28;20376;-78
2021/06/05 00:59:01;;;;;;;8.70;7.22;;;;;;;17.95;71.51;100953.31;4986239;28;20073;-78
2021/06/05 01:01:30;;;;;;;8.98;7.57;;;;;;;18.05;70.77;100953.03;4968753;28;20058;-78
2021/06/05 01:03:56;;;;;;;10.65;8.20;;;;;;;18.10;70.76;100959.09;4964122;28;20035;-78
2021/06/05 01:06:32;;;;;;;12.75;10.15;;;;;;;18.08;70.42;100958.31;4968675;28;20132;-78
2021/06/05 01:09:03;;;;;;;12.55;9.27;;;;;;;18.09;70.14;100952.03;4984087;28;20560;-78
2021/06/05 01:11:46;;;;;;;8.05;7.20;;;;;;;18.11;70.21;100955.53;4985942;28;20563;-78
2021/06/05 01:14:40;;;;;;;9.33;8.27;;;;;;;18.08;70.64;100956.50;4984582;28;20045;-78
2021/06/05 01:17:12;;;;;;;9.52;7.15;;;;;;;18.01;71.13;100959.41;4951889;28;20066;-78
2021/06/05 01:20:02;;;;;;;8.25;7.40;;;;;;;17.91;71.11;100959.66;4986119;28;20121;-79
2021/06/05 01:22:39;;;;;;;9.30;7.90;;;;;;;17.80;72.21;100955.56;4958666;28;20043;-78
2021/06/05 01:25:24;;;;;;;10.13;8.02;;;;;;;17.82;72.02;100959.94;4968018;28;20085;-78
2021/06/05 01:27:58;;;;;;;8.60;7.70;;;;;;;17.91;71.48;100958.78;4949667;28;20062;-78
2021/06/05 01:30:36;;;;;;;10.50;9.02;;;;;;;17.75;73.06;100956.53;4979011;28;20070;-78
2021/06/05 01:33:02;;;;;;;10.93;9.57;;;;;;;17.50;73.52;100959.06;4973818;28;20055;-78
2021/06/05 01:35:31;;;;;;;12.32;8.95;;;;;;;17.55;72.53;100960.69;4953978;28;20085;-79
2021/06/05 01:38:01;;;;;;;13.82;9.18;;;;;;;17.64;72.00;100947.09;4934091;28;20039;-79
2021/06/05 01:40:28;;;;;;;13.27;9.38;;;;;;;17.70;71.67;100946.91;4970677;28;20035;-78
2021/06/05 01:42:57;;;;;;;10.23;8.73;;;;;;;17.67;71.77;100955.88;4968785;28;20038;-78
2021/06/05 01:45:31;;;;;;;9.75;8.52;;;;;;;17.64;71.97;100950.66;4982512;28;20030;-78
2021/06/05 01:47:58;;;;;;;10.57;7.95;;;;;;;17.62;71.82;100946.28;4963565;28;20046;-78
2021/06/05 01:50:31;;;;;;;10.07;9.07;;;;;;;17.56;72.00;100946.47;4979224;28;20070;-78
2021/06/05 01:53:07;;;;;;;14.43;12.80;;;;;;;17.55;72.16;100944.69;4984655;28;20505;-78
2021/06/05 01:55:42;;;;;;;11.57;10.18;;;;;;;17.53;72.30;100942.09;4952256;28;20050;-78
2021/06/05 01:58:15;;;;;;;10.48;8.82;;;;;;;17.45;72.81;100936.09;4967774;28;20093;-78
2021/06/05 02:00:53;;;;;;;13.38;10.77;;;;;;;17.51;72.63;100938.56;4983683;28;20057;-78
2021/06/05 02:03:21;;;;;;;9.75;8.75;;;;;;;17.55;72.17;100940.22;4965423;28;20085;-77
2021/06/05 02:06:03;;;;;;;14.20;9.85;;;;;;;17.56;72.20;100933.09;4968120;28;20031;-77
2021/06/05 02:08:29;;;;;;;10.07;9.00;;;;;;;17.52;72.62;100933.16;4962117;28;20529;-77
2021/06/05 02:11:04;;;;;;;10.90;8.88;;;;;;;17.51;72.30;100938.56;4964075;28;20038;-77
2021/06/05 02:13:39;;;;;;;12.93;9.35;;;;;;;17.50;72.92;100935.03;4961921;28;20035;-76
2021/06/05 02:16:29;;;;;;;11.07;9.20;;;;;;;17.52;72.71;100937.63;4964996;28;20069;-78
2021/06/05 02:19:02;;;;;;;12.05;9.45;;;;;;;17.52;72.46;100925.16;4962061;28;20063;-77
2021/06/05 02:21:41;;;;;;;9.60;8.65;;;;;;;17.59;72.37;100927.69;4964707;28;20035;-77
2021/06/05 02:24:23;;;;;;;10.70;9.60;;;;;;;17.57;72.77;100924.16;4976201;28;20037;-77
2021/06/05 02:26:50;;;;;;;11.52;9.00;;;;;;;17.59;72.29;100927.69;4948071;28;20035;-77
2021/06/05 02:29:28;;;;;;;12.10;9.15;;;;;;;17.62;72.01;100920.44;4964349;28;20031;-77
2021/06/05 02:31:53;;;;;;;9.77;8.48;;;;;;;17.60;71.84;100926.75;4982678;28;20039;-79
2021/06/05 02:34:23;;;;;;;10.93;9.27;;;;;;;17.46;73.25;100925.34;4967072;28;20041;-78
2021/06/05 02:36:52;;;;;;;11.25;9.25;;;;;;;17.42;72.89;100925.47;4947879;28;20032;-78
2021/06/05 02:39:19;;;;;;;11.50;10.18;;;;;;;17.39;72.82;100928.22;4968373;28;20026;-78
2021/06/05 02:41:50;;;;;;;11.77;10.68;;;;;;;17.41;72.95;100929.94;4951429;28;20446;-78
2021/06/05 02:44:18;;;;;;;14.35;11.90;;;;;;;17.44;72.78;100932.53;4985134;28;20117;-78
2021/06/05 02:46:46;;;;;;;11.35;10.15;;;;;;;17.47;72.60;100936.91;4964153;28;20031;-78
2021/06/05 02:49:18;;;;;;;11.10;9.48;;;;;;;17.44;72.59;100929.84;4967777;28;20099;-78
2021/06/05 02:51:48;;;;;;;13.73;12.30;;;;;;;17.45;72.19;100923.63;4946933;28;20051;-79
2021/06/05 02:54:19;;;;;;;15.55;12.38;;;;;;;17.43;71.90;100914.78;4984314;28;20038;-78
2021/06/05 02:56:47;;;;;;;19.48;16.60;;;;;;;17.42;71.82;100913.03;4964609;28;20030;-77
2021/06/05 02:59:12;;;;;;;18.35;16.55;;;;;;;17.37;72.18;100914.97;4950059;28;20041;-77
2021/06/05 03:01:43;;;;;;;18.98;17.23;;;;;;;17.33;72.10;100907.06;4986277;28;20418;-77
2021/06/05 03:04:10;;;;;;;15.00;13.52;;;;;;;17.27;72.40;100908.13;4952287;28;20121;-78
2021/06/05 03:06:36;;;;;;;12.05;10.88;;;;;;;17.21;72.39;100905.59;4965316;28;20030;-78
2021/06/05 03:09:03;;;;;;;10.80;9.35;;;;;;;17.18;72.71;100906.56;4962855;28;20039;-78
2021/06/05 03:11:28;;;;;;;11.68;10.23;;;;;;;17.14;72.72;100901.38;4967394;28;20045;-78
2021/06/05 03:13:56;;;;;;;13.23;11.93;;;;;;;17.12;72.81;100909.41;4985898;28;20041;-79
2021/06/05 03:16:22;;;;;;;10.93;9.82;;;;;;;17.11;72.48;100904.09;4949705;28;20492;-75
2021/06/05 03:18:55;;;;;;;10.60;9.55;;;;;;;17.04;72.90;100896.28;4983561;28;20042;-79
2021/06/05 03:21:21;;;;;;;12.50;10.63;;;;;;;16.92;73.64;100898.41;4969642;28;20119;-78
2021/06/05 03:23:51;;;;;;;11.43;10.10;;;;;;;16.81;74.33;100904.00;4949319;28;20514;-78
2021/06/05 03:26:27;;;;;;;11.65;10.45;;;;;;;16.76;75.03;100905.88;4966237;28;20043;-79
2021/06/05 03:28:54;;;;;;;11.68;10.43;;;;;;;16.79;74.42;100900.50;4968909;28;20130;-78
2021/06/05 03:31:21;;;;;;;13.48;12.18;;;;;;;16.89;74.08;100901.16;4949302;28;20426;-79
2021/06/05 03:33:51;;;;;;;12.60;11.40;;;;;;;16.95;74.20;100907.22;4970309;28;20030;-78
2021/06/05 03:36:21;;;;;;;11.13;9.80;;;;;;;16.99;73.89;100903.53;4966050;28;20054;-78
2021/06/05 03:38:47;;;;;;;14.50;13.10;;;;;;;17.09;73.36;100905.03;4969207;28;20031;-79
2021/06/05 03:41:23;;;;;;;16.25;14.75;;;;;;;17.23;73.14;100911.78;4971884;28;20057;-79
2021/06/05 03:43:48;;;;;;;14.77;12.30;;;;;;;17.28;73.03;100921.41;4986404;28;20050;-79
2021/06/05 03:46:14;;;;;;;13.63;12.30;;;;;;;17.24;73.35;100921.56;4953159;28;20031;-79
2021/06/05 03:48:40;;;;;;;16.45;14.85;;;;;;;17.29;73.31;100924.94;4989287;28;20045;-79
2021/06/05 03:51:09;;;;;;;15.57;14.07;;;;;;;17.37;73.10;100925.63;4983983;28;20298;-79
2021/06/05 03:53:36;;;;;;;15.48;14.07;;;;;;;17.42;72.46;100934.38;4949140;28;20031;-78
2021/06/05 03:56:03;;;;;;;12.75;11.30;;;;;;;17.42;72.78;100929.03;4969093;28;20042;-79
2021/06/05 03:58:38;;;;;;;14.45;12.93;;;;;;;17.41;73.04;100932.59;4984851;28;20045;-79
2021/06/05 04:01:06;;;;;;;18.33;16.27;;;;;;;17.43;72.66;100930.78;4980341;28;20039;-78
2021/06/05 04:03:32;;;;;;;23.13;20.77;;;;;;;17.45;72.52;100917.41;4965163;28;20113;-79
2021/06/05 04:05:57;;;;;;;21.40;19.10;;;;;;;17.46;72.26;100928.03;4981673;28;20055;-78
2021/06/05 04:08:22;;;;;;;20.98;18.98;;;;;;;17.50;71.72;100916.34;4988850;28;20085;-78
2021/06/05 04:10:48;;;;;;;19.25;17.05;;;;;;;17.57;71.43;100916.16;4988460;28;20041;-78
2021/06/05 04:13:13;;;;;;;15.45;13.85;;;;;;;17.57;71.33;100929.50;4986978;28;20042;-81
2021/06/05 04:15:39;;;;;;;12.80;10.48;;;;;;;17.55;71.07;100939.34;4989648;28;20030;-78
2021/06/05 04:18:10;;;;;;;11.40;10.13;;;;;;;17.44;71.26;100935.19;4989891;28;20109;-78
2021/06/05 04:20:38;;;;;;;12.02;9.57;;;;;;;17.35;71.58;100940.78;4973634;28;20031;-79
2021/06/05 04:23:05;;;;;;;10.73;9.07;;;;;;;17.37;71.67;100941.63;4969979;28;20049;-79
2021/06/05 04:25:31;;;;;;;12.07;9.73;;;;;;;17.43;71.68;100946.78;4987777;28;20045;-78
2021/06/05 04:27:57;;;;;;;12.65;11.25;;;;;;;17.46;71.29;100944.03;4972518;28;20027;-79
2021/06/05 04:30:26;;;;;;;17.92;16.20;;;;;;;17.55;71.04;100947.34;4951793;29;20039;-78
2021/06/05 04:32:52;;;;;;;14.00;12.65;;;;;;;17.62;70.66;100946.28;4985160;28;20035;-79
2021/06/05 04:35:18;;;;;;;15.40;13.90;;;;;;;17.68;70.53;100943.41;4988582;28;20137;-80
2021/06/05 04:37:44;;;;;;;12.57;11.38;;;;;;;17.72;70.36;100937.06;4989676;28;20042;-79
2021/06/05 04:40:12;;;;;;;16.73;15.10;;;;;;;17.77;70.11;100939.63;4988159;28;20026;-79
2021/06/05 04:42:37;;;;;;;15.93;14.50;;;;;;;17.81;69.87;100942.16;4988546;28;20038;-80
2021/06/05 04:45:04;;;;;;;19.88;17.77;;;;;;;17.83;69.94;100940.34;4952361;28;20039;-79
2021/06/05 04:47:29;;;;;;;20.10;18.10;;;;;;;17.92;69.54;100947.19;4991605;28;20038;-79
2021/06/05 04:49:55;;;;;;;19.48;17.52;;;;;;;18.05;69.29;100951.25;4958865;28;20117;-77
2021/06/05 04:52:20;;;;;;;13.93;12.52;;;;;;;18.14;68.92;100950.09;4965548;28;20038;-78
2021/06/05 04:54:46;;;;;;;15.73;14.00;;;;;;;18.21;68.95;100949.00;4970196;28;20560;-78
2021/06/05 04:57:11;;;;;;;18.35;16.35;;;;;;;18.27;68.63;100946.13;4992305;28;20453;-80
2021/06/05 04:59:36;;;;;;;17.33;15.63;;;;;;;18.40;68.16;100947.47;4971941;28;20430;-79
2021/06/05 05:02:02;;;;;;;19.35;17.50;;;;;;;18.59;68.29;100937.06;4973398;28;20043;-79
2021/06/05 05:04:27;;;;;;;18.15;16.38;;;;;;;18.77;67.02;100940.97;4991730;28;20236;-79
2021/06/05 05:06:52;;;;;;;18.30;16.58;;;;;;;18.93;66.66;100945.78;4954279;28;20045;-79
2021/06/05 05:09:18;;;;;;;19.13;17.33;;;;;;;19.10;66.08;100943.41;4991681;28;20041;-80
2021/06/05 05:11:44;;;;;;;13.95;12.57;;;;;;;19.24;65.36;100945.59;4974086;28;20047;-79
2021/06/05 05:14:11;;;;;;;10.70;9.65;;;;;;;19.38;64.62;100947.78;4993769;28;20068;-79
2021/06/05 05:16:37;;;;;;;10.55;9.45;;;;;;;19.48;64.71;100946.50;4991968;28;20031;-79
2021/06/05 05:19:03;;;;;;;11.43;10.07;;;;;;;19.51;64.76;100949.06;4991042;28;20065;-79
2021/06/05 05:21:28;;;;;;;11.45;9.95;;;;;;;19.46;64.91;100934.97;4954460;28;20067;-79
2021/06/05 05:23:54;;;;;;;15.20;13.60;;;;;;;19.52;64.94;100940.13;4991705;28;20030;-79
2021/06/05 05:26:21;;;;;;;18.52;16.63;;;;;;;19.49;64.96;100932.19;4974157;28;20039;-79
2021/06/05 05:28:52;;;;;;;19.50;17.33;;;;;;;19.50;64.91;100931.28;4993019;28;20057;-79
2021/06/05 05:31:19;;;;;;;19.02;17.13;;;;;;;19.37;64.85;100940.69;4975130;28;20043;-79
2021/06/05 05:33:44;;;;;;;18.65;16.77;;;;;;;19.33;65.05;100934.53;4973825;28;20041;-79
2021/06/05 05:36:13;;;;;;;21.98;19.58;;;;;;;19.36;65.23;100942.50;4993093;28;20558;-79
2021/06/05 05:38:39;;;;;;;20.33;18.30;;;;;;;19.41;64.90;100944.97;4993248;28;20030;-79
2021/06/05 05:41:11;;;;;;;21.30;19.08;;;;;;;19.42;65.18;100939.59;4971176;28;20042;-79
2021/06/05 05:43:37;;;;;;;17.75;15.95;;;;;;;19.46;65.13;100938.53;4957685;28;20042;-79
2021/06/05 05:46:04;;;;;;;12.88;11.55;;;;;;;19.56;64.94;100938.19;4955163;28;20035;-79
2021/06/05 05:48:31;;;;;;;12.90;11.55;;;;;;;19.63;64.15;100927.22;4969445;28;20041;-79
2021/06/05 05:50:56;;;;;;;12.43;11.23;;;;;;;19.67;63.84;100931.53;4962053;28;20027;-80
2021/06/05 05:53:22;;;;;;;19.38;17.35;;;;;;;19.72;63.67;100930.50;4992911;28;20089;-79
2021/06/05 05:55:47;;;;;;;18.55;16.88;;;;;;;19.82;63.84;100927.41;4988673;28;20542;-78
2021/06/05 05:58:16;;;;;;;16.20;14.60;;;;;;;19.93;63.72;100929.69;4988928;28;20031;-78
2021/06/05 06:00:45;;;;;;;13.73;12.43;;;;;;;19.97;63.18;100920.59;4981818;28;20030;-78
2021/06/05 06:03:11;;;;;;;11.00;9.77;;;;;;;20.01;63.13;100927.56;4936878;28;20038;-78
2021/06/05 06:05:37;;;;;;;15.43;13.45;;;;;;;20.17;62.62;100922.47;4968217;28;20371;-78
2021/06/05 06:08:04;;;;;;;17.40;15.60;;;;;;;20.38;62.58;100925.22;4970712;28;20038;-78
2021/06/05 06:10:29;;;;;;;14.05;12.75;;;;;;;20.54;62.08;100927.28;4988714;28;20042;-78
2021/06/05 06:12:55;;;;;;;15.63;14.02;;;;;;;20.65;61.38;100929.50;4969803;28;20038;-78
2021/06/05 06:15:24;;;;;;;13.43;12.05;;;;;;;20.77;60.83;100933.47;4987088;28;20122;-79
2021/06/05 06:17:51;;;;;;;13.50;11.63;;;;;;;20.77;60.54;100922.75;4984710;28;20077;-78
2021/06/05 06:20:29;;;;;;;18.00;16.02;;;;;;;20.85;60.95;100927.78;4989888;28;20499;-78
2021/06/05 06:22:55;;;;;;;18.30;11.98;;;;;;;21.08;59.84;100919.63;4990095;28;20449;-79
2021/06/05 06:25:23;;;;;;;14.27;12.57;;;;;;;21.26;59.91;100928.69;4988097;28;20039;-79
2021/06/05 06:27:49;;;;;;;11.85;9.88;;;;;;;21.42;59.71;100939.63;4969745;28;20038;-78
2021/06/05 06:30:18;;;;;;;16.52;14.65;;;;;;;21.68;59.23;100938.47;4987357;28;20039;-79
2021/06/05 06:32:48;;;;;;;15.88;14.23;;;;;;;21.98;57.75;100935.28;4987642;28;20062;-79
2021/06/05 06:35:14;;;;;;;12.48;10.93;;;;;;;22.06;57.20;100939.38;4971949;28;20049;-78
2021/06/05 06:37:39;;;;;;;13.07;10.90;;;;;;;22.07;57.23;100940.22;4986615;28;20030;-79
2021/06/05 06:40:05;;;;;;;13.45;10.32;;;;;;;22.24;57.38;100937.66;4968154;28;20054;-79
2021/06/05 06:42:30;;;;;;;10.05;9.05;;;;;;;22.53;56.49;100933.53;4989870;28;20034;-79
2021/06/05 06:44:56;;;;;;;9.45;8.13;;;;;;;22.63;56.49;100933.91;4972510;28;20085;-79
2021/06/05 06:47:21;;;;;;;11.32;10.10;;;;;;;22.98;55.73;100934.00;4988183;28;20030;-79
2021/06/05 06:49:46;;;;;;;15.20;13.65;;;;;;;23.10;54.55;100933.34;4989519;28;20031;-79
2021/06/05 06:52:12;;;;;;;11.13;9.57;;;;;;;23.20;54.01;100931.06;4956091;28;20122;-79
2021/06/05 06:54:37;;;;;;;10.65;9.55;;;;;;;23.41;54.42;100926.34;4967199;28;20043;-79
2021/06/05 06:57:03;;;;;;;10.52;9.52;;;;;;;23.58;53.95;100934.41;4984048;28;20062;-79
2021/06/05 06:59:28;;;;;;;11.45;10.30;;;;;;;23.61;53.74;100928.00;4986084;28;20096;-79
2021/06/05 07:01:54;;;;;;;13.02;11.82;;;;;;;23.67;53.72;100924.09;4989632;28;20038;-79
2021/06/05 07:04:19;;;;;;;11.02;9.88;;;;;;;23.74;52.95;100925.53;4985855;28;20031;-79
2021/06/05 07:06:44;;;;;;;12.48;11.05;;;;;;;23.93;52.54;100920.84;4984871;28;20525;-79
2021/06/05 07:09:10;;;;;;;17.40;15.88;;;;;;;24.00;52.43;100916.88;4984516;28;20038;-79
2021/06/05 07:11:37;;;;;;;20.75;18.60;;;;;;;23.99;52.48;100920.50;4981490;28;20129;-79
2021/06/05 07:14:05;;;;;;;18.92;17.08;;;;;;;24.03;52.59;100919.38;4981955;28;20177;-79
2021/06/05 07:16:33;;;;;;;11.40;9.73;;;;;;;24.14;51.89;100913.38;4984155;28;20436;-79
2021/06/05 07:18:58;;;;;;;9.48;7.60;;;;;;;24.14;51.66;100916.06;4945105;28;20396;-79
2021/06/05 07:21:25;;;;;;;12.35;11.07;;;;;;;24.06;52.19;100919.22;4982251;28;20038;-79
2021/06/05 07:23:50;;;;;;;12.15;9.25;;;;;;;24.21;51.93;100913.91;4982829;28;20062;-78
2021/06/05 07:26:21;;;;;;;16.63;14.85;;;;;;;24.24;51.43;100916.44;4985726;28;20049;-79
2021/06/05 07:28:53;;;;;;;17.93;16.13;;;;;;;24.32;51.80;100924.09;4985511;28;20050;-79
2021/06/05 07:31:29;;;;;;;17.50;15.80;;;;;;;24.53;50.58;100928.28;4983752;28;20142;-79
2021/06/05 07:33:56;;;;;;;17.33;15.63;;;;;;;24.74;50.21;100909.94;4962893;28;20054;-79
2021/06/05 07:36:26;;;;;;;19.58;17.45;;;;;;;24.86;50.30;100911.94;4967376;28;20121;-79
2021/06/05 07:38:51;;;;;;;14.80;12.27;;;;;;;24.96;50.25;100911.34;4986629;28;20038;-79
2021/06/05 07:41:17;;;;;;;17.05;15.43;;;;;;;25.05;50.07;100910.81;4987257;28;20035;-79
2021/06/05 07:43:42;;;;;;;19.00;17.10;;;;;;;25.19;49.44;100921.66;4986758;28;20046;-79
2021/06/05 07:46:08;;;;;;;10.48;7.60;;;;;;;25.19;48.93;100915.41;4986812;28;20058;-79
2021/06/05 07:48:35;;;;;;;14.73;13.20;;;;;;;25.22;48.62;100916.06;4971128;28;20030;-79
2021/06/05 07:51:00;;;;;;;12.95;10.80;;;;;;;25.18;48.08;100919.94;4970882;28;20036;-79
2021/06/05 07:53:26;;;;;;;12.00;10.80;;;;;;;25.18;47.97;100906.44;4986733;28;20043;-79
2021/06/05 07:55:52;;;;;;;14.63;13.25;;;;;;;25.16;48.29;100911.06;4983355;28;20031;-79
2021/06/05 07:58:17;;;;;;;11.15;9.15;;;;;;;25.19;48.12;100910.84;4987368;28;20502;-79
2021/06/05 08:00:43;;;;;;;10.65;9.23;;;;;;;25.14;47.11;100912.94;4949855;28;20094;-79
2021/06/05 08:03:08;;;;;;;7.88;6.22;;;;;;;25.11;47.08;100905.03;4986620;28;20042;-78
2021/06/05 08:05:35;;;;;;;8.00;5.75;;;;;;;25.20;47.06;100911.72;4970137;28;20042;-79
2021/06/05 08:08:01;;;;;;;6.97;5.22;;;;;;;25.27;46.70;100905.00;4988561;28;20070;-79
2021/06/05 08:10:27;;;;;;;7.97;6.28;;;;;;;25.24;47.04;100902.47;4955357;28;20077;-78
2021/06/05 08:12:53;;;;;;;7.28;5.35;;;;;;;25.17;46.26;100901.97;4986385;28;20715;-79
2021/06/05 08:15:32;;;;;;;9.30;5.95;;;;;;;25.14;46.69;100907.53;4983646;28;20113;-79
2021/06/05 08:17:58;;;;;;;9.82;8.02;;;;;;;25.35;46.99;100905.38;4988274;28;20035;-79
2021/06/05 08:20:43;;;;;;;12.65;9.20;;;;;;;25.39;46.91;100906.94;4950922;28;20035;-79
2021/06/05 08:23:10;;;;;;;14.85;13.35;;;;;;;25.70;46.75;100905.88;4983241;28;20038;-79
2021/06/05 08:25:35;;;;;;;9.27;7.07;;;;;;;25.79;45.46;100894.47;4969198;28;20058;-79
2021/06/05 08:28:01;;;;;;;13.20;8.50;;;;;;;25.80;46.08;100896.19;4988224;28;20100;-79
2021/06/05 08:30:37;;;;;;;7.90;7.13;;;;;;;25.89;45.69;100894.78;4986301;28;20488;-79
2021/06/05 08:33:03;;;;;;;16.75;15.00;;;;;;;25.99;45.78;100882.41;4985364;28;20041;-79
2021/06/05 08:35:29;;;;;;;14.27;12.88;;;;;;;26.15;45.31;100890.38;4987046;28;20038;-79
2021/06/05 08:37:54;;;;;;;17.52;15.73;;;;;;;26.06;45.66;100890.97;4955806;28;20462;-80
2021/06/05 08:40:25;;;;;;;8.75;7.82;;;;;;;25.99;45.29;100893.22;4985790;28;20034;-79
2021/06/05 08:42:52;;;;;;;7.20;6.20;;;;;;;25.89;45.70;100893.94;4969131;28;20050;-79
2021/06/05 08:45:29;;;;;;;9.90;6.50;;;;;;;25.75;45.41;100892.94;4987863;28;20030;-79
2021/06/05 08:47:56;;;;;;;6.93;6.22;;;;;;;25.94;45.53;100891.78;4969843;28;20491;-79
2021/06/05 08:50:28;;;;;;;8.98;6.00;;;;;;;26.01;44.67;100888.56;4967229;28;20035;-79
2021/06/05 08:53:02;;;;;;;6.15;5.32;;;;;;;25.97;45.01;100892.44;4969029;28;20570;-79
2021/06/05 08:55:43;;;;;;;8.10;7.30;;;;;;;26.15;45.24;100895.78;4966538;28;20043;-79
2021/06/05 08:58:14;;;;;;;6.93;6.10;;;;;;;26.33;45.15;100887.41;4981751;28;20050;-79
2021/06/05 09:00:44;;;;;;;8.18;6.97;;;;;;;26.70;44.71;100884.97;4968739;28;20039;-79
2021/06/05 09:03:16;;;;;;;8.18;5.70;;;;;;;26.95;43.38;100889.56;4962587;28;20039;-79
2021/06/05 09:05:50;;;;;;;6.15;5.43;;;;;;;27.00;43.13;100890.13;4964725;28;20483;-79
2021/06/05 09:08:18;;;;;;;7.82;5.60;;;;;;;27.11;43.43;100891.09;4983361;28;20046;-79
2021/06/05 09:10:45;;;;;;;8.90;5.95;;;;;;;27.45;44.18;100883.34;4967595;28;20038;-79
2021/06/05 09:13:10;;;;;;;6.00;5.18;;;;;;;27.86;43.10;100882.22;4962246;28;20039;-79
2021/06/05 09:15:36;;;;;;;6.78;5.13;;;;;;;27.92;41.22;100878.19;4968744;28;20038;-79
2021/06/05 09:18:05;;;;;;;7.07;5.15;;;;;;;27.80;41.39;100879.94;4987188;28;20054;-79
2021/06/05 09:21:00;;;;;;;6.53;5.72;;;;;;;27.93;40.80;100866.38;4982366;28;20027;-79
2021/06/05 09:23:34;;;;;;;7.82;5.63;;;;;;;28.12;40.41;100877.59;4967916;28;20491;-79
2021/06/05 09:26:21;;;;;;;8.52;5.65;;;;;;;28.23;39.61;100873.22;4982737;28;20134;-79
2021/06/05 09:28:46;;;;;;;6.68;5.22;;;;;;;28.22;40.40;100877.78;4985652;28;20045;-79
2021/06/05 09:31:14;;;;;;;7.15;5.38;;;;;;;28.29;40.59;100879.03;4967471;28;20043;-79
2021/06/05 09:33:40;;;;;;;9.60;5.63;;;;;;;28.28;39.62;100871.88;4980699;28;20062;-79
2021/06/05 09:36:21;;;;;;;6.05;4.68;;;;;;;28.41;38.92;100871.81;4968246;28;20038;-79
2021/06/05 09:39:08;;;;;;;6.40;4.75;;;;;;;28.30;38.50;100875.34;4965032;28;20047;-79
2021/06/05 09:41:34;;;;;;;5.75;4.35;;;;;;;28.11;39.00;100865.03;4983699;28;20034;-79
2021/06/05 09:44:22;;;;;;;7.90;4.22;;;;;;;27.86;39.54;100867.81;4969461;28;20041;-80
2021/06/05 09:46:59;;;;;;;5.78;4.60;;;;;;;27.90;40.35;100862.06;4968288;28;20062;-79
2021/06/05 09:49:32;;;;;;;5.65;4.50;;;;;;;27.81;39.08;100865.44;4970634;28;20034;-79
2021/06/05 09:52:13;;;;;;;5.00;4.13;;;;;;;28.05;38.70;100857.31;4955012;28;20032;-79
2021/06/05 09:54:43;;;;;;;7.07;4.80;;;;;;;28.32;39.90;100865.25;4965987;28;20047;-79
2021/06/05 09:57:27;;;;;;;5.18;3.75;;;;;;;28.56;37.80;100865.28;4982981;28;20038;-79
2021/06/05 10:00:01;;;;;;;4.38;3.85;;;;;;;28.78;37.57;100864.47;4986746;28;20044;-79
2021/06/05 10:02:47;;;;;;;5.28;3.92;;;;;;;28.94;36.87;100864.13;4986914;28;20034;-79
2021/06/05 10:05:23;;;;;;;6.03;4.13;;;;;;;28.86;36.66;100855.72;4967317;28;20455;-79
2021/06/05 10:07:50;;;;;;;5.40;3.60;;;;;;;29.14;36.79;100851.75;4984430;28;20046;-80
2021/06/05 10:10:22;;;;;;;5.30;3.80;;;;;;;29.21;36.09;100854.81;4985202;28;20035;-79
2021/06/05 10:12:49;;;;;;;4.68;3.97;;;;;;;29.06;35.81;100846.06;4984059;28;20081;-79
2021/06/05 10:15:31;;;;;;;5.22;4.22;;;;;;;29.00;36.32;100846.50;4967099;28;20038;-79
2021/06/05 10:18:07;;;;;;;4.63;3.90;;;;;;;29.07;35.77;100842.34;4964628;28;20062;-79
2021/06/05 10:21:01;;;;;;;6.07;4.22;;;;;;;29.32;35.87;100834.94;4980841;28;20030;-79
2021/06/05 10:23:29;;;;;;;5.60;4.20;;;;;;;29.63;36.32;100842.38;4984855;28;20038;-79
2021/06/05 10:26:01;;;;;;;5.90;4.05;;;;;;;29.81;34.64;100831.00;4982992;28;20062;-79
2021/06/05 10:28:33;;;;;;;5.00;4.32;;;;;;;30.08;34.81;100836.88;4966832;28;20042;-79
2021/06/05 10:31:01;;;;;;;;;;;;;;;30.23;35.27;100837.47;4986061;28;20038;-79
2021/06/05 10:33:36;;;;;;;5.68;3.45;;;;;;;30.47;33.30;100834.53;4980733;28;19921;-79
2021/06/05 10:36:08;;;;;;;6.00;3.58;;;;;;;30.76;32.99;100839.34;4946935;28;20067;-79
2021/06/05 10:38:53;;;;;;;4.85;3.47;;;;;;;30.96;32.63;100829.47;4986205;28;20073;-79
2021/06/05 10:41:24;;;;;;;5.57;3.47;;;;;;;31.24;31.11;100833.34;4985901;28;20582;-79
2021/06/05 10:43:50;;;;;;;5.47;3.47;;;;;;;31.25;30.78;100828.75;4952076;28;20049;-79
2021/06/05 10:46:38;;;;;;;5.40;3.47;;;;;;;30.62;31.38;100818.72;4966125;28;20030;-80
2021/06/05 10:49:10;;;;;;;4.47;3.22;;;;;;;30.05;32.36;100823.53;4985625;28;20065;-80
2021/06/05 10:51:40;;;;;;;6.30;3.65;;;;;;;29.76;33.75;100823.19;4984170;28;20401;-79
2021/06/05 10:54:11;;;;;;;5.00;3.25;;;;;;;29.64;32.92;100821.47;4983189;28;20030;-80
2021/06/05 10:57:00;;;;;;;8.15;3.38;;;;;;;29.53;33.56;100819.63;4984402;28;20061;-79
2021/06/05 10:59:40;;;;;;;4.25;3.33;;;;;;;29.66;33.57;100822.25;4981911;28;20129;-79
2021/06/05 11:02:07;;;;;;;5.18;3.30;;;;;;;29.84;34.23;100815.28;4984441;28;20096;-79
2021/06/05 11:04:32;;;;;;;5.43;3.10;;;;;;;29.98;32.60;100822.31;4983012;28;20043;-79
2021/06/05 11:07:03;;;;;;;6.63;3.33;;;;;;;30.29;32.08;100809.75;4985160;28;20100;-79
2021/06/05 11:09:32;;;;;;;5.32;3.30;;;;;;;30.50;32.07;100812.50;4948689;28;20047;-79
2021/06/05 11:12:25;;;;;;;4.63;3.00;;;;;;;30.34;30.82;100807.50;4962139;28;20034;-79
2021/06/05 11:14:52;;;;;;;5.50;2.50;;;;;;;30.50;31.30;100806.19;4951950;28;20069;-80
2021/06/05 11:17:39;;;;;;;4.63;3.28;;;;;;;30.48;31.73;100802.72;4982602;28;20037;-79
2021/06/05 11:20:05;;;;;;;3.70;2.75;;;;;;;30.46;31.54;100794.66;4978297;28;20035;-79
2021/06/05 11:22:50;;;;;;;4.70;2.67;;;;;;;30.34;32.25;100791.16;4974375;28;20085;-79
2021/06/05 11:25:15;;;;;;;3.58;2.80;;;;;;;30.50;31.89;100789.84;4965232;28;20102;-79
2021/06/05 11:27:40;;;;;;;4.72;3.22;;;;;;;30.61;31.76;100789.78;4969915;28;20471;-79